Ryouei Maru — JL6703 — position and weather

sailwx.info

Track history (hours):
 
Tides and Currents Weather Stations Pressure Air Temp Water Temp Dewpoint Dewpoint Depression Visibility Wind Speed Wind Dir Waves Ship Positions

Ryouei Maru

Last reported at 2015-Apr-18 13:27 UTC. Time now 2015-Apr-18 15:14 UTC.
Position N 34°60' E 140°15'.

Length 95 m; draft 5 m.

Type: Cargo ship. MMSI: 431501749.

Date/timePositionNaut miles runAvg speedWind from/ knotsBaromVisibWave heightAir tempDewpointWater temp
2015-Apr-18 13:27N 34°60' E 140°15'1713.1
2015-Apr-18 12:11N 34°51' E 139°57'25111.6
2015-Apr-17 14:33N 33°59' E 134°59'1313.1
2015-Apr-17 13:33N 34°13' E 134°59'1212.0
2015-Apr-17 12:33N 34°24' E 135°03'1313.3
2015-Apr-17 11:33N 34°33' E 135°15'1010.0
2015-Apr-17 10:33N 34°37' E 135°26'0 0.1
2015-Apr-17 09:32N 34°37' E 135°26'0 0.0
2015-Apr-17 08:32N 34°37' E 135°26'0 0.0
2015-Apr-17 06:32N 34°37' E 135°26'0 0.0
2015-Apr-17 04:08N 34°37' E 135°26'0 0.0
2015-Apr-17 03:32N 34°37' E 135°26'0 0.0
2015-Apr-17 01:26N 34°37' E 135°26'0 0.0
2015-Apr-17 00:26N 34°37' E 135°26'0 0.0
2015-Apr-16 23:26N 34°37' E 135°26'0 0.1
2015-Apr-16 22:31N 34°37' E 135°26'5 5.6
2015-Apr-16 21:33N 34°35' E 135°20'1313.0
2015-Apr-16 20:33N 34°26' E 135°09'1312.8
2015-Apr-16 19:33N 34°15' E 134°59'1313.0
2015-Apr-16 18:32N 34°02' E 135°00'230 8.7
2015-Apr-15 16:10N 34°59' E 139°31'710.4
2015-Apr-15 15:32N 35°03' E 139°37'1110.9
2015-Apr-15 14:33N 35°11' E 139°45'1111.0
2015-Apr-15 13:33N 35°22' E 139°42'1111.4
2015-Apr-15 12:33N 35°31' E 139°51'7 2.8
2015-Apr-15 10:04N 35°37' E 139°47'0 0.0
2015-Apr-15 09:28N 35°37' E 139°47'0 0.0
2015-Apr-15 00:29N 35°37' E 139°47'7 7.7
2015-Apr-14 23:33N 35°31' E 139°52'1312.3
2015-Apr-14 22:32N 35°20' E 139°44'1111.3
2015-Apr-14 21:33N 35°09' E 139°47'1312.4
2015-Apr-14 20:28N 34°56' E 139°44'1210.0
2015-Apr-14 19:19N 34°52' E 139°57'911.2
2015-Apr-14 18:32N 34°56' E 140°07'1211.3
2015-Apr-14 17:28N 35°02' E 140°20'1311.6
2015-Apr-14 16:21N 35°11' E 140°31'  
2015-Apr-11 22:11N 35°50' E 140°56'811.6
2015-Apr-11 21:32N 35°42' E 140°56'1110.9
2015-Apr-11 20:29N 35°32' E 140°51'1111.7
2015-Apr-11 19:32N 35°23' E 140°42'1111.4
2015-Apr-11 18:33N 35°15' E 140°33'1411.8
2015-Apr-11 17:24N 35°04' E 140°23'911.0
2015-Apr-11 16:33N 34°58' E 140°14'1211.3
2015-Apr-11 15:31N 34°53' E 140°01'25510.5
2015-Apr-10 15:10N 33°57' E 134°59'813.1
2015-Apr-10 14:33N 34°05' E 134°58'1312.7
2015-Apr-10 13:29N 34°18' E 134°58'1212.6
2015-Apr-10 12:33N 34°28' E 135°06'1313.4
2015-Apr-10 11:33N 34°36' E 135°20'5 1.5
2015-Apr-10 08:13N 34°37' E 135°26'0 0.0
2015-Apr-10 01:31N 34°37' E 135°26'0 0.0
2015-Apr-10 00:19N 34°37' E 135°26'0 0.0
2015-Apr-09 23:19N 34°37' E 135°26'0 0.1
2015-Apr-09 22:33N 34°37' E 135°26'9 8.8
2015-Apr-09 21:33N 34°32' E 135°17'1211.6
2015-Apr-09 20:33N 34°24' E 135°07'1110.7
2015-Apr-09 19:33N 34°15' E 134°60'1211.9
2015-Apr-09 18:33N 34°03' E 135°00'23410.5
2015-Apr-08 20:17N 34°43' E 139°39'2612.9
2015-Apr-08 18:16N 34°56' E 140°07'1012.7
2015-Apr-08 17:31N 35°00' E 140°17'1612.8
2015-Apr-08 16:16N 35°12' E 140°31'  
Track history (hours):
 
Tides and Currents Weather Stations Pressure Air Temp Water Temp Dewpoint Dewpoint Depression Visibility Wind Speed Wind Dir Waves Ship Positions

Ryouei Maru

Last reported at 2015-Apr-18 13:27 UTC. Time now 2015-Apr-18 15:14 UTC.
Position N 34°60' E 140°15'.

Length 95 m; draft 5 m.

Type: Cargo ship. MMSI: 431501749.

Date/timePositionNaut miles runAvg speedWind from/ knotsBaromVisibWave heightAir tempDewpointWater temp
2015-Apr-18 13:27N 34°60' E 140°15'1713.1
2015-Apr-18 12:11N 34°51' E 139°57'25111.6
2015-Apr-17 14:33N 33°59' E 134°59'1313.1
2015-Apr-17 13:33N 34°13' E 134°59'1212.0
2015-Apr-17 12:33N 34°24' E 135°03'1313.3
2015-Apr-17 11:33N 34°33' E 135°15'1010.0
2015-Apr-17 10:33N 34°37' E 135°26'0 0.1
2015-Apr-17 09:32N 34°37' E 135°26'0 0.0
2015-Apr-17 08:32N 34°37' E 135°26'0 0.0
2015-Apr-17 06:32N 34°37' E 135°26'0 0.0
2015-Apr-17 04:08N 34°37' E 135°26'0 0.0
2015-Apr-17 03:32N 34°37' E 135°26'0 0.0
2015-Apr-17 01:26N 34°37' E 135°26'0 0.0
2015-Apr-17 00:26N 34°37' E 135°26'0 0.0
2015-Apr-16 23:26N 34°37' E 135°26'0 0.1
2015-Apr-16 22:31N 34°37' E 135°26'5 5.6
2015-Apr-16 21:33N 34°35' E 135°20'1313.0
2015-Apr-16 20:33N 34°26' E 135°09'1312.8
2015-Apr-16 19:33N 34°15' E 134°59'1313.0
2015-Apr-16 18:32N 34°02' E 135°00'230 8.7
2015-Apr-15 16:10N 34°59' E 139°31'710.4
2015-Apr-15 15:32N 35°03' E 139°37'1110.9
2015-Apr-15 14:33N 35°11' E 139°45'1111.0
2015-Apr-15 13:33N 35°22' E 139°42'1111.4
2015-Apr-15 12:33N 35°31' E 139°51'7 2.8
2015-Apr-15 10:04N 35°37' E 139°47'0 0.0
2015-Apr-15 09:28N 35°37' E 139°47'0 0.0
2015-Apr-15 00:29N 35°37' E 139°47'7 7.7
2015-Apr-14 23:33N 35°31' E 139°52'1312.3
2015-Apr-14 22:32N 35°20' E 139°44'1111.3
2015-Apr-14 21:33N 35°09' E 139°47'1312.4
2015-Apr-14 20:28N 34°56' E 139°44'1210.0
2015-Apr-14 19:19N 34°52' E 139°57'911.2
2015-Apr-14 18:32N 34°56' E 140°07'1211.3
2015-Apr-14 17:28N 35°02' E 140°20'1311.6
2015-Apr-14 16:21N 35°11' E 140°31'  
2015-Apr-11 22:11N 35°50' E 140°56'811.6
2015-Apr-11 21:32N 35°42' E 140°56'1110.9
2015-Apr-11 20:29N 35°32' E 140°51'1111.7
2015-Apr-11 19:32N 35°23' E 140°42'1111.4
2015-Apr-11 18:33N 35°15' E 140°33'1411.8
2015-Apr-11 17:24N 35°04' E 140°23'911.0
2015-Apr-11 16:33N 34°58' E 140°14'1211.3
2015-Apr-11 15:31N 34°53' E 140°01'25510.5
2015-Apr-10 15:10N 33°57' E 134°59'813.1
2015-Apr-10 14:33N 34°05' E 134°58'1312.7
2015-Apr-10 13:29N 34°18' E 134°58'1212.6
2015-Apr-10 12:33N 34°28' E 135°06'1313.4
2015-Apr-10 11:33N 34°36' E 135°20'5 1.5
2015-Apr-10 08:13N 34°37' E 135°26'0 0.0
2015-Apr-10 01:31N 34°37' E 135°26'0 0.0
2015-Apr-10 00:19N 34°37' E 135°26'0 0.0
2015-Apr-09 23:19N 34°37' E 135°26'0 0.1
2015-Apr-09 22:33N 34°37' E 135°26'9 8.8
2015-Apr-09 21:33N 34°32' E 135°17'1211.6
2015-Apr-09 20:33N 34°24' E 135°07'1110.7
2015-Apr-09 19:33N 34°15' E 134°60'1211.9
2015-Apr-09 18:33N 34°03' E 135°00'23410.5
2015-Apr-08 20:17N 34°43' E 139°39'2612.9
2015-Apr-08 18:16N 34°56' E 140°07'1012.7
2015-Apr-08 17:31N 35°00' E 140°17'1612.8
2015-Apr-08 16:16N 35°12' E 140°31'  

Dump ship's entire track history